sensor_id;sensor_type;location;lat;lon;timestamp;P1;durP1;ratioP1;P2;durP2;ratioP2
46651;SDS011;32377;52.182;5.398;2022-07-11T00:00:54;11.48;;;3.85;;
46651;SDS011;32377;52.182;5.398;2022-07-11T00:03:20;11.98;;;3.42;;
46651;SDS011;32377;52.182;5.398;2022-07-11T00:05:45;10.88;;;3.20;;
46651;SDS011;32377;52.182;5.398;2022-07-11T00:08:11;10.93;;;3.72;;
46651;SDS011;32377;52.182;5.398;2022-07-11T00:10:37;8.43;;;2.63;;
46651;SDS011;32377;52.182;5.398;2022-07-11T00:13:02;8.57;;;3.35;;
46651;SDS011;32377;52.182;5.398;2022-07-11T00:15:28;11.60;;;3.70;;
46651;SDS011;32377;52.182;5.398;2022-07-11T00:17:53;9.90;;;2.75;;
46651;SDS011;32377;52.182;5.398;2022-07-11T00:20:19;6.78;;;2.55;;
46651;SDS011;32377;52.182;5.398;2022-07-11T00:22:45;6.93;;;2.75;;
46651;SDS011;32377;52.182;5.398;2022-07-11T00:25:10;9.02;;;2.78;;
46651;SDS011;32377;52.182;5.398;2022-07-11T00:27:36;5.57;;;2.40;;
46651;SDS011;32377;52.182;5.398;2022-07-11T00:30:01;8.55;;;2.80;;
46651;SDS011;32377;52.182;5.398;2022-07-11T00:32:27;6.78;;;2.33;;
46651;SDS011;32377;52.182;5.398;2022-07-11T00:34:53;6.45;;;2.70;;
46651;SDS011;32377;52.182;5.398;2022-07-11T00:37:18;7.32;;;2.08;;
46651;SDS011;32377;52.182;5.398;2022-07-11T00:39:44;2.72;;;1.55;;
46651;SDS011;32377;52.182;5.398;2022-07-11T00:42:09;5.18;;;1.40;;
46651;SDS011;32377;52.182;5.398;2022-07-11T00:44:35;8.60;;;1.73;;
46651;SDS011;32377;52.182;5.398;2022-07-11T00:47:01;3.47;;;1.40;;
46651;SDS011;32377;52.182;5.398;2022-07-11T00:49:27;3.70;;;1.17;;
46651;SDS011;32377;52.182;5.398;2022-07-11T00:51:52;4.25;;;1.50;;
46651;SDS011;32377;52.182;5.398;2022-07-11T00:54:18;4.03;;;1.38;;
46651;SDS011;32377;52.182;5.398;2022-07-11T00:56:47;5.00;;;1.35;;
46651;SDS011;32377;52.182;5.398;2022-07-11T00:59:13;5.85;;;1.60;;
46651;SDS011;32377;52.182;5.398;2022-07-11T01:01:40;5.03;;;1.40;;
46651;SDS011;32377;52.182;5.398;2022-07-11T01:04:05;5.38;;;1.40;;
46651;SDS011;32377;52.182;5.398;2022-07-11T01:06:31;3.25;;;1.30;;
46651;SDS011;32377;52.182;5.398;2022-07-11T01:08:56;2.65;;;1.48;;
46651;SDS011;32377;52.182;5.398;2022-07-11T01:11:22;8.30;;;1.85;;
46651;SDS011;32377;52.182;5.398;2022-07-11T01:13:47;5.80;;;1.50;;
46651;SDS011;32377;52.182;5.398;2022-07-11T01:16:14;6.75;;;1.50;;
46651;SDS011;32377;52.182;5.398;2022-07-11T01:18:42;2.15;;;1.05;;
46651;SDS011;32377;52.182;5.398;2022-07-11T01:21:11;3.55;;;1.10;;
46651;SDS011;32377;52.182;5.398;2022-07-11T01:23:47;3.60;;;1.52;;
46651;SDS011;32377;52.182;5.398;2022-07-11T01:26:13;1.98;;;1.20;;
46651;SDS011;32377;52.182;5.398;2022-07-11T01:28:40;6.30;;;1.48;;
46651;SDS011;32377;52.182;5.398;2022-07-11T01:31:05;4.63;;;1.63;;
46651;SDS011;32377;52.182;5.398;2022-07-11T01:33:31;3.08;;;1.50;;
46651;SDS011;32377;52.182;5.398;2022-07-11T01:35:59;3.58;;;1.60;;
46651;SDS011;32377;52.182;5.398;2022-07-11T01:38:28;6.65;;;2.28;;
46651;SDS011;32377;52.182;5.398;2022-07-11T01:40:54;4.72;;;1.60;;
46651;SDS011;32377;52.182;5.398;2022-07-11T01:43:19;3.30;;;1.40;;
46651;SDS011;32377;52.182;5.398;2022-07-11T01:45:45;3.53;;;1.63;;
46651;SDS011;32377;52.182;5.398;2022-07-11T01:48:11;3.75;;;1.60;;
46651;SDS011;32377;52.182;5.398;2022-07-11T01:50:36;4.10;;;1.67;;
46651;SDS011;32377;52.182;5.398;2022-07-11T01:53:02;6.22;;;1.60;;
46651;SDS011;32377;52.182;5.398;2022-07-11T01:55:27;3.10;;;1.50;;
46651;SDS011;32377;52.182;5.398;2022-07-11T01:57:53;4.05;;;1.50;;
46651;SDS011;32377;52.182;5.398;2022-07-11T02:00:19;5.45;;;1.70;;
46651;SDS011;32377;52.182;5.398;2022-07-11T02:02:45;5.15;;;1.98;;
46651;SDS011;32377;52.182;5.398;2022-07-11T02:05:10;2.20;;;1.52;;
46651;SDS011;32377;52.182;5.398;2022-07-11T02:07:36;9.07;;;1.60;;
46651;SDS011;32377;52.182;5.398;2022-07-11T02:10:20;4.88;;;1.90;;
46651;SDS011;32377;52.182;5.398;2022-07-11T02:12:45;4.25;;;1.75;;
46651;SDS011;32377;52.182;5.398;2022-07-11T02:15:11;5.07;;;1.80;;
46651;SDS011;32377;52.182;5.398;2022-07-11T02:17:36;4.88;;;1.90;;
46651;SDS011;32377;52.182;5.398;2022-07-11T02:20:02;8.48;;;1.75;;
46651;SDS011;32377;52.182;5.398;2022-07-11T02:22:28;5.15;;;1.70;;
46651;SDS011;32377;52.182;5.398;2022-07-11T02:24:54;4.63;;;1.70;;
46651;SDS011;32377;52.182;5.398;2022-07-11T02:27:20;5.10;;;1.73;;
46651;SDS011;32377;52.182;5.398;2022-07-11T02:29:46;6.80;;;1.92;;
46651;SDS011;32377;52.182;5.398;2022-07-11T02:32:11;6.00;;;2.03;;
46651;SDS011;32377;52.182;5.398;2022-07-11T02:34:37;7.53;;;1.95;;
46651;SDS011;32377;52.182;5.398;2022-07-11T02:37:03;8.27;;;2.05;;
46651;SDS011;32377;52.182;5.398;2022-07-11T02:39:28;4.10;;;1.58;;
46651;SDS011;32377;52.182;5.398;2022-07-11T02:41:54;8.20;;;2.30;;
46651;SDS011;32377;52.182;5.398;2022-07-11T02:44:19;4.72;;;2.20;;
46651;SDS011;32377;52.182;5.398;2022-07-11T02:46:45;4.13;;;1.90;;
46651;SDS011;32377;52.182;5.398;2022-07-11T02:49:10;3.97;;;1.77;;
46651;SDS011;32377;52.182;5.398;2022-07-11T02:51:36;8.32;;;1.92;;
46651;SDS011;32377;52.182;5.398;2022-07-11T02:54:02;7.75;;;2.05;;
46651;SDS011;32377;52.182;5.398;2022-07-11T02:56:27;4.22;;;1.70;;
46651;SDS011;32377;52.182;5.398;2022-07-11T02:58:53;3.90;;;1.75;;
46651;SDS011;32377;52.182;5.398;2022-07-11T03:01:18;5.85;;;2.08;;
46651;SDS011;32377;52.182;5.398;2022-07-11T03:03:44;5.50;;;2.15;;
46651;SDS011;32377;52.182;5.398;2022-07-11T03:06:10;6.82;;;2.25;;
46651;SDS011;32377;52.182;5.398;2022-07-11T03:08:36;5.85;;;2.25;;
46651;SDS011;32377;52.182;5.398;2022-07-11T03:11:02;5.60;;;2.08;;
46651;SDS011;32377;52.182;5.398;2022-07-11T03:13:28;5.93;;;2.42;;
46651;SDS011;32377;52.182;5.398;2022-07-11T03:15:54;9.30;;;2.30;;
46651;SDS011;32377;52.182;5.398;2022-07-11T03:18:19;4.43;;;2.45;;
46651;SDS011;32377;52.182;5.398;2022-07-11T03:20:45;3.88;;;2.00;;
46651;SDS011;32377;52.182;5.398;2022-07-11T03:23:10;5.43;;;2.33;;
46651;SDS011;32377;52.182;5.398;2022-07-11T03:25:36;9.02;;;2.47;;
46651;SDS011;32377;52.182;5.398;2022-07-11T03:28:02;6.80;;;2.47;;
46651;SDS011;32377;52.182;5.398;2022-07-11T03:30:27;8.75;;;3.45;;
46651;SDS011;32377;52.182;5.398;2022-07-11T03:32:53;6.78;;;2.97;;
46651;SDS011;32377;52.182;5.398;2022-07-11T03:35:18;7.13;;;3.08;;
46651;SDS011;32377;52.182;5.398;2022-07-11T03:38:02;7.07;;;2.78;;
46651;SDS011;32377;52.182;5.398;2022-07-11T03:40:28;7.20;;;3.58;;
46651;SDS011;32377;52.182;5.398;2022-07-11T03:42:53;6.78;;;3.45;;
46651;SDS011;32377;52.182;5.398;2022-07-11T03:45:19;5.93;;;3.08;;
46651;SDS011;32377;52.182;5.398;2022-07-11T03:47:45;8.55;;;3.08;;
46651;SDS011;32377;52.182;5.398;2022-07-11T03:50:12;10.85;;;3.88;;
46651;SDS011;32377;52.182;5.398;2022-07-11T03:52:37;9.57;;;4.28;;
46651;SDS011;32377;52.182;5.398;2022-07-11T03:55:03;7.47;;;3.25;;
46651;SDS011;32377;52.182;5.398;2022-07-11T03:57:29;12.30;;;4.22;;
46651;SDS011;32377;52.182;5.398;2022-07-11T03:59:55;9.80;;;3.72;;
46651;SDS011;32377;52.182;5.398;2022-07-11T04:02:20;9.38;;;4.00;;
46651;SDS011;32377;52.182;5.398;2022-07-11T04:04:46;10.13;;;4.53;;
46651;SDS011;32377;52.182;5.398;2022-07-11T04:07:12;10.20;;;4.30;;
46651;SDS011;32377;52.182;5.398;2022-07-11T04:09:38;7.38;;;4.55;;
46651;SDS011;32377;52.182;5.398;2022-07-11T04:12:03;9.45;;;4.65;;
46651;SDS011;32377;52.182;5.398;2022-07-11T04:14:29;11.65;;;4.65;;
46651;SDS011;32377;52.182;5.398;2022-07-11T04:16:55;9.05;;;4.63;;
46651;SDS011;32377;52.182;5.398;2022-07-11T04:19:20;7.30;;;3.80;;
46651;SDS011;32377;52.182;5.398;2022-07-11T04:21:48;13.25;;;4.40;;
46651;SDS011;32377;52.182;5.398;2022-07-11T04:24:14;10.27;;;4.45;;
46651;SDS011;32377;52.182;5.398;2022-07-11T04:26:39;7.40;;;4.43;;
46651;SDS011;32377;52.182;5.398;2022-07-11T04:29:05;9.02;;;4.45;;
46651;SDS011;32377;52.182;5.398;2022-07-11T04:31:32;10.23;;;4.63;;
46651;SDS011;32377;52.182;5.398;2022-07-11T04:33:58;7.93;;;4.72;;
46651;SDS011;32377;52.182;5.398;2022-07-11T04:36:23;7.32;;;3.88;;
46651;SDS011;32377;52.182;5.398;2022-07-11T04:38:49;10.07;;;4.43;;
46651;SDS011;32377;52.182;5.398;2022-07-11T04:41:14;7.38;;;4.20;;
46651;SDS011;32377;52.182;5.398;2022-07-11T04:43:40;7.07;;;4.50;;
46651;SDS011;32377;52.182;5.398;2022-07-11T04:46:05;7.60;;;4.40;;
46651;SDS011;32377;52.182;5.398;2022-07-11T04:48:31;7.75;;;4.72;;
46651;SDS011;32377;52.182;5.398;2022-07-11T04:50:57;6.50;;;4.25;;
46651;SDS011;32377;52.182;5.398;2022-07-11T04:53:22;7.93;;;4.30;;
46651;SDS011;32377;52.182;5.398;2022-07-11T04:55:48;7.25;;;4.38;;
46651;SDS011;32377;52.182;5.398;2022-07-11T04:58:14;5.55;;;3.63;;
46651;SDS011;32377;52.182;5.398;2022-07-11T05:00:40;11.35;;;4.00;;
46651;SDS011;32377;52.182;5.398;2022-07-11T05:03:06;6.55;;;3.72;;
46651;SDS011;32377;52.182;5.398;2022-07-11T05:05:32;8.48;;;3.83;;
46651;SDS011;32377;52.182;5.398;2022-07-11T05:07:58;7.25;;;3.67;;
46651;SDS011;32377;52.182;5.398;2022-07-11T05:10:24;4.97;;;2.85;;
46651;SDS011;32377;52.182;5.398;2022-07-11T05:12:49;6.60;;;3.55;;
46651;SDS011;32377;52.182;5.398;2022-07-11T05:15:15;3.92;;;3.10;;
46651;SDS011;32377;52.182;5.398;2022-07-11T05:17:40;6.07;;;3.20;;
46651;SDS011;32377;52.182;5.398;2022-07-11T05:20:06;3.95;;;2.53;;
46651;SDS011;32377;52.182;5.398;2022-07-11T05:22:32;6.85;;;2.38;;
46651;SDS011;32377;52.182;5.398;2022-07-11T05:24:58;8.90;;;2.70;;
46651;SDS011;32377;52.182;5.398;2022-07-11T05:27:24;2.47;;;2.25;;
46651;SDS011;32377;52.182;5.398;2022-07-11T05:29:49;4.68;;;2.22;;
46651;SDS011;32377;52.182;5.398;2022-07-11T05:32:15;5.43;;;2.42;;
46651;SDS011;32377;52.182;5.398;2022-07-11T05:34:41;4.30;;;1.73;;
46651;SDS011;32377;52.182;5.398;2022-07-11T05:37:06;5.75;;;2.20;;
46651;SDS011;32377;52.182;5.398;2022-07-11T05:39:32;3.42;;;1.65;;
46651;SDS011;32377;52.182;5.398;2022-07-11T05:41:58;6.25;;;2.10;;
46651;SDS011;32377;52.182;5.398;2022-07-11T05:44:23;3.40;;;1.95;;
46651;SDS011;32377;52.182;5.398;2022-07-11T05:46:49;3.67;;;1.80;;
46651;SDS011;32377;52.182;5.398;2022-07-11T05:51:57;3.22;;;1.80;;
46651;SDS011;32377;52.182;5.398;2022-07-11T05:54:22;2.28;;;1.38;;
46651;SDS011;32377;52.182;5.398;2022-07-11T05:56:48;3.85;;;1.70;;
46651;SDS011;32377;52.182;5.398;2022-07-11T05:59:14;1.80;;;1.25;;
46651;SDS011;32377;52.182;5.398;2022-07-11T06:01:39;4.65;;;1.55;;
46651;SDS011;32377;52.182;5.398;2022-07-11T06:04:05;3.88;;;1.48;;
46651;SDS011;32377;52.182;5.398;2022-07-11T06:06:31;3.97;;;1.60;;
46651;SDS011;32377;52.182;5.398;2022-07-11T06:08:57;2.08;;;1.58;;
46651;SDS011;32377;52.182;5.398;2022-07-11T06:11:22;3.22;;;1.23;;
46651;SDS011;32377;52.182;5.398;2022-07-11T06:13:48;3.35;;;1.73;;
46651;SDS011;32377;52.182;5.398;2022-07-11T06:16:14;3.30;;;1.75;;
46651;SDS011;32377;52.182;5.398;2022-07-11T06:18:40;3.58;;;1.48;;
46651;SDS011;32377;52.182;5.398;2022-07-11T06:21:06;2.83;;;1.38;;
46651;SDS011;32377;52.182;5.398;2022-07-11T06:23:32;1.52;;;1.08;;
46651;SDS011;32377;52.182;5.398;2022-07-11T06:25:59;2.63;;;1.20;;
46651;SDS011;32377;52.182;5.398;2022-07-11T06:28:26;1.35;;;1.25;;
46651;SDS011;32377;52.182;5.398;2022-07-11T06:30:52;2.80;;;1.05;;
46651;SDS011;32377;52.182;5.398;2022-07-11T06:33:18;2.33;;;1.33;;
46651;SDS011;32377;52.182;5.398;2022-07-11T06:35:44;2.80;;;1.20;;
46651;SDS011;32377;52.182;5.398;2022-07-11T06:38:14;1.65;;;0.90;;
46651;SDS011;32377;52.182;5.398;2022-07-11T06:40:41;1.90;;;0.98;;
46651;SDS011;32377;52.182;5.398;2022-07-11T06:43:08;1.75;;;1.10;;
46651;SDS011;32377;52.182;5.398;2022-07-11T06:45:34;1.70;;;0.90;;
46651;SDS011;32377;52.182;5.398;2022-07-11T06:48:00;0.90;;;0.77;;
46651;SDS011;32377;52.182;5.398;2022-07-11T06:50:25;2.08;;;0.85;;
46651;SDS011;32377;52.182;5.398;2022-07-11T06:52:51;0.88;;;0.82;;
46651;SDS011;32377;52.182;5.398;2022-07-11T06:55:17;0.47;;;0.45;;
46651;SDS011;32377;52.182;5.398;2022-07-11T06:57:42;0.98;;;0.50;;
46651;SDS011;32377;52.182;5.398;2022-07-11T07:00:08;0.82;;;0.55;;
46651;SDS011;32377;52.182;5.398;2022-07-11T07:02:34;1.05;;;0.82;;
46651;SDS011;32377;52.182;5.398;2022-07-11T07:05:00;2.10;;;0.80;;
46651;SDS011;32377;52.182;5.398;2022-07-11T07:07:26;1.17;;;0.80;;
46651;SDS011;32377;52.182;5.398;2022-07-11T07:09:53;1.70;;;0.90;;
46651;SDS011;32377;52.182;5.398;2022-07-11T07:12:19;0.85;;;0.60;;
46651;SDS011;32377;52.182;5.398;2022-07-11T07:14:45;2.22;;;0.60;;
46651;SDS011;32377;52.182;5.398;2022-07-11T07:17:11;2.55;;;0.60;;
46651;SDS011;32377;52.182;5.398;2022-07-11T07:19:37;1.42;;;0.50;;
46651;SDS011;32377;52.182;5.398;2022-07-11T07:22:02;0.95;;;0.55;;
46651;SDS011;32377;52.182;5.398;2022-07-11T07:24:28;3.10;;;0.70;;
46651;SDS011;32377;52.182;5.398;2022-07-11T07:26:53;1.00;;;0.40;;
46651;SDS011;32377;52.182;5.398;2022-07-11T07:29:19;0.80;;;0.52;;
46651;SDS011;32377;52.182;5.398;2022-07-11T07:31:45;1.10;;;0.55;;
46651;SDS011;32377;52.182;5.398;2022-07-11T07:34:11;0.65;;;0.60;;
46651;SDS011;32377;52.182;5.398;2022-07-11T07:36:37;0.73;;;0.70;;
46651;SDS011;32377;52.182;5.398;2022-07-11T07:39:03;0.80;;;0.73;;
46651;SDS011;32377;52.182;5.398;2022-07-11T07:41:28;1.05;;;0.73;;
46651;SDS011;32377;52.182;5.398;2022-07-11T07:43:54;0.93;;;0.50;;
46651;SDS011;32377;52.182;5.398;2022-07-11T07:46:19;1.15;;;0.60;;
46651;SDS011;32377;52.182;5.398;2022-07-11T07:48:45;1.17;;;0.88;;
46651;SDS011;32377;52.182;5.398;2022-07-11T07:51:10;1.27;;;0.90;;
46651;SDS011;32377;52.182;5.398;2022-07-11T07:53:36;0.55;;;0.55;;
46651;SDS011;32377;52.182;5.398;2022-07-11T07:56:03;0.75;;;0.40;;
46651;SDS011;32377;52.182;5.398;2022-07-11T07:58:31;1.17;;;0.50;;
46651;SDS011;32377;52.182;5.398;2022-07-11T08:00:57;1.77;;;0.80;;
46651;SDS011;32377;52.182;5.398;2022-07-11T08:03:41;2.70;;;0.82;;
46651;SDS011;32377;52.182;5.398;2022-07-11T08:06:06;1.08;;;0.70;;
46651;SDS011;32377;52.182;5.398;2022-07-11T08:08:32;1.95;;;0.60;;
46651;SDS011;32377;52.182;5.398;2022-07-11T08:10:57;3.72;;;0.60;;
46651;SDS011;32377;52.182;5.398;2022-07-11T08:13:27;2.25;;;0.50;;
46651;SDS011;32377;52.182;5.398;2022-07-11T08:15:52;0.60;;;0.47;;
46651;SDS011;32377;52.182;5.398;2022-07-11T08:18:18;0.65;;;0.57;;
46651;SDS011;32377;52.182;5.398;2022-07-11T08:20:44;1.02;;;0.50;;
46651;SDS011;32377;52.182;5.398;2022-07-11T08:23:09;1.20;;;0.60;;
46651;SDS011;32377;52.182;5.398;2022-07-11T08:25:35;0.30;;;0.30;;
46651;SDS011;32377;52.182;5.398;2022-07-11T08:28:00;0.30;;;0.30;;
46651;SDS011;32377;52.182;5.398;2022-07-11T08:30:26;0.90;;;0.80;;
46651;SDS011;32377;52.182;5.398;2022-07-11T08:32:52;1.23;;;0.40;;
46651;SDS011;32377;52.182;5.398;2022-07-11T08:35:17;0.90;;;0.47;;
46651;SDS011;32377;52.182;5.398;2022-07-11T08:37:43;0.45;;;0.40;;
46651;SDS011;32377;52.182;5.398;2022-07-11T08:40:09;1.33;;;0.47;;
46651;SDS011;32377;52.182;5.398;2022-07-11T08:42:44;0.82;;;0.38;;
46651;SDS011;32377;52.182;5.398;2022-07-11T08:45:10;0.63;;;0.55;;
46651;SDS011;32377;52.182;5.398;2022-07-11T08:47:37;0.68;;;0.43;;
46651;SDS011;32377;52.182;5.398;2022-07-11T08:50:04;0.43;;;0.32;;
46651;SDS011;32377;52.182;5.398;2022-07-11T08:52:31;1.17;;;0.50;;
46651;SDS011;32377;52.182;5.398;2022-07-11T08:54:57;0.90;;;0.55;;
46651;SDS011;32377;52.182;5.398;2022-07-11T08:57:23;1.30;;;0.43;;
46651;SDS011;32377;52.182;5.398;2022-07-11T08:59:49;0.40;;;0.30;;
46651;SDS011;32377;52.182;5.398;2022-07-11T09:02:20;0.60;;;0.38;;
46651;SDS011;32377;52.182;5.398;2022-07-11T09:04:47;0.43;;;0.43;;
46651;SDS011;32377;52.182;5.398;2022-07-11T09:07:13;1.00;;;0.60;;
46651;SDS011;32377;52.182;5.398;2022-07-11T09:09:39;0.50;;;0.43;;
46651;SDS011;32377;52.182;5.398;2022-07-11T09:12:09;0.60;;;0.60;;
46651;SDS011;32377;52.182;5.398;2022-07-11T09:14:37;3.47;;;0.50;;
46651;SDS011;32377;52.182;5.398;2022-07-11T09:17:04;1.40;;;0.70;;
46651;SDS011;32377;52.182;5.398;2022-07-11T09:19:34;0.60;;;0.50;;
46651;SDS011;32377;52.182;5.398;2022-07-11T09:22:11;0.82;;;0.70;;
46651;SDS011;32377;52.182;5.398;2022-07-11T09:28:03;0.60;;;0.43;;
46651;SDS011;32377;52.182;5.398;2022-07-11T09:30:31;2.92;;;0.77;;
46651;SDS011;32377;52.182;5.398;2022-07-11T09:33:01;1.17;;;0.43;;
46651;SDS011;32377;52.182;5.398;2022-07-11T09:35:33;0.65;;;0.40;;
46651;SDS011;32377;52.182;5.398;2022-07-11T09:38:03;1.10;;;0.40;;
46651;SDS011;32377;52.182;5.398;2022-07-11T09:40:30;2.53;;;0.68;;
46651;SDS011;32377;52.182;5.398;2022-07-11T09:42:56;0.63;;;0.43;;
46651;SDS011;32377;52.182;5.398;2022-07-11T09:45:23;0.90;;;0.40;;
46651;SDS011;32377;52.182;5.398;2022-07-11T09:47:51;0.40;;;0.40;;
46651;SDS011;32377;52.182;5.398;2022-07-11T09:50:18;0.40;;;0.40;;
46651;SDS011;32377;52.182;5.398;2022-07-11T09:52:57;1.00;;;0.50;;
46651;SDS011;32377;52.182;5.398;2022-07-11T09:55:43;3.55;;;0.60;;
46651;SDS011;32377;52.182;5.398;2022-07-11T09:58:11;0.52;;;0.43;;
46651;SDS011;32377;52.182;5.398;2022-07-11T10:00:42;0.43;;;0.40;;
46651;SDS011;32377;52.182;5.398;2022-07-11T10:03:10;2.53;;;0.45;;
46651;SDS011;32377;52.182;5.398;2022-07-11T10:05:36;1.77;;;0.70;;
46651;SDS011;32377;52.182;5.398;2022-07-11T10:08:03;1.33;;;0.50;;
46651;SDS011;32377;52.182;5.398;2022-07-11T10:10:31;0.75;;;0.50;;
46651;SDS011;32377;52.182;5.398;2022-07-11T10:12:58;0.93;;;0.60;;
46651;SDS011;32377;52.182;5.398;2022-07-11T10:15:28;0.52;;;0.45;;
46651;SDS011;32377;52.182;5.398;2022-07-11T10:31:24;0.77;;;0.50;;
46651;SDS011;32377;52.182;5.398;2022-07-11T10:36:27;3.55;;;0.85;;
46651;SDS011;32377;52.182;5.398;2022-07-11T10:41:49;3.35;;;0.80;;
46651;SDS011;32377;52.182;5.398;2022-07-11T10:44:15;0.68;;;0.68;;
46651;SDS011;32377;52.182;5.398;2022-07-11T10:46:42;3.72;;;0.60;;
46651;SDS011;32377;52.182;5.398;2022-07-11T10:54:30;0.88;;;0.40;;
46651;SDS011;32377;52.182;5.398;2022-07-11T10:59:58;0.80;;;0.57;;
46651;SDS011;32377;52.182;5.398;2022-07-11T11:08:39;2.20;;;0.60;;
46651;SDS011;32377;52.182;5.398;2022-07-11T11:11:07;2.80;;;0.80;;
46651;SDS011;32377;52.182;5.398;2022-07-11T11:14:16;0.82;;;0.40;;
46651;SDS011;32377;52.182;5.398;2022-07-11T11:16:46;0.70;;;0.50;;
46651;SDS011;32377;52.182;5.398;2022-07-11T11:22:12;0.60;;;0.50;;
46651;SDS011;32377;52.182;5.398;2022-07-11T11:24:40;1.08;;;0.55;;
46651;SDS011;32377;52.182;5.398;2022-07-11T11:27:43;1.75;;;0.80;;
46651;SDS011;32377;52.182;5.398;2022-07-11T11:30:01;0.40;;;0.40;;
46651;SDS011;32377;52.182;5.398;2022-07-11T11:32:30;0.77;;;0.60;;
46651;SDS011;32377;52.182;5.398;2022-07-11T11:34:56;1.10;;;0.30;;
46651;SDS011;32377;52.182;5.398;2022-07-11T11:37:22;0.90;;;0.40;;
46651;SDS011;32377;52.182;5.398;2022-07-11T11:39:49;0.40;;;0.40;;
46651;SDS011;32377;52.182;5.398;2022-07-11T11:42:22;0.63;;;0.40;;
46651;SDS011;32377;52.182;5.398;2022-07-11T11:44:55;0.70;;;0.60;;
46651;SDS011;32377;52.182;5.398;2022-07-11T11:47:24;0.40;;;0.40;;
46651;SDS011;32377;52.182;5.398;2022-07-11T11:49:50;0.40;;;0.30;;
46651;SDS011;32377;52.182;5.398;2022-07-11T11:52:16;0.75;;;0.50;;
46651;SDS011;32377;52.182;5.398;2022-07-11T11:54:43;0.80;;;0.47;;
46651;SDS011;32377;52.182;5.398;2022-07-11T11:57:10;0.90;;;0.40;;
46651;SDS011;32377;52.182;5.398;2022-07-11T11:59:37;0.77;;;0.40;;
46651;SDS011;32377;52.182;5.398;2022-07-11T12:02:03;0.40;;;0.35;;
46651;SDS011;32377;52.182;5.398;2022-07-11T12:04:33;0.35;;;0.35;;
46651;SDS011;32377;52.182;5.398;2022-07-11T12:07:01;0.57;;;0.50;;
46651;SDS011;32377;52.182;5.398;2022-07-11T12:09:27;1.42;;;0.45;;
46651;SDS011;32377;52.182;5.398;2022-07-11T12:12:12;1.48;;;0.40;;
46651;SDS011;32377;52.182;5.398;2022-07-11T12:15:01;1.35;;;0.35;;
46651;SDS011;32377;52.182;5.398;2022-07-11T12:17:26;1.70;;;0.70;;
46651;SDS011;32377;52.182;5.398;2022-07-11T12:19:54;0.50;;;0.50;;
46651;SDS011;32377;52.182;5.398;2022-07-11T12:22:20;0.73;;;0.43;;
46651;SDS011;32377;52.182;5.398;2022-07-11T12:24:47;0.75;;;0.40;;
46651;SDS011;32377;52.182;5.398;2022-07-11T12:27:32;0.40;;;0.30;;
46651;SDS011;32377;52.182;5.398;2022-07-11T12:29:57;0.40;;;0.40;;
46651;SDS011;32377;52.182;5.398;2022-07-11T12:32:23;1.15;;;0.70;;
46651;SDS011;32377;52.182;5.398;2022-07-11T12:34:49;0.75;;;0.70;;
46651;SDS011;32377;52.182;5.398;2022-07-11T12:37:15;2.40;;;0.60;;
46651;SDS011;32377;52.182;5.398;2022-07-11T12:39:49;0.82;;;0.50;;
46651;SDS011;32377;52.182;5.398;2022-07-11T12:42:42;4.30;;;0.57;;
46651;SDS011;32377;52.182;5.398;2022-07-11T12:45:06;1.15;;;0.57;;
46651;SDS011;32377;52.182;5.398;2022-07-11T12:47:39;0.63;;;0.63;;
46651;SDS011;32377;52.182;5.398;2022-07-11T12:50:12;1.52;;;0.80;;
46651;SDS011;32377;52.182;5.398;2022-07-11T12:52:39;0.63;;;0.63;;
46651;SDS011;32377;52.182;5.398;2022-07-11T12:55:06;1.02;;;0.60;;
46651;SDS011;32377;52.182;5.398;2022-07-11T12:57:34;0.60;;;0.50;;
46651;SDS011;32377;52.182;5.398;2022-07-11T13:00:10;1.35;;;0.60;;
46651;SDS011;32377;52.182;5.398;2022-07-11T13:02:47;0.40;;;0.40;;
46651;SDS011;32377;52.182;5.398;2022-07-11T13:05:14;1.25;;;0.50;;
46651;SDS011;32377;52.182;5.398;2022-07-11T13:07:41;0.50;;;0.50;;
46651;SDS011;32377;52.182;5.398;2022-07-11T13:10:26;0.45;;;0.40;;
46651;SDS011;32377;52.182;5.398;2022-07-11T13:13:12;0.55;;;0.35;;
46651;SDS011;32377;52.182;5.398;2022-07-11T13:15:38;0.63;;;0.30;;
46651;SDS011;32377;52.182;5.398;2022-07-11T13:18:03;1.33;;;0.55;;
46651;SDS011;32377;52.182;5.398;2022-07-11T13:20:30;1.02;;;0.43;;
46651;SDS011;32377;52.182;5.398;2022-07-11T13:22:58;0.52;;;0.38;;
46651;SDS011;32377;52.182;5.398;2022-07-11T13:25:24;0.60;;;0.57;;
46651;SDS011;32377;52.182;5.398;2022-07-11T13:27:50;0.60;;;0.60;;
46651;SDS011;32377;52.182;5.398;2022-07-11T13:30:17;0.80;;;0.60;;
46651;SDS011;32377;52.182;5.398;2022-07-11T13:32:46;2.97;;;0.90;;
46651;SDS011;32377;52.182;5.398;2022-07-11T13:35:12;2.40;;;0.70;;
46651;SDS011;32377;52.182;5.398;2022-07-11T13:37:39;2.80;;;0.80;;
46651;SDS011;32377;52.182;5.398;2022-07-11T13:40:09;1.02;;;0.73;;
46651;SDS011;32377;52.182;5.398;2022-07-11T13:42:36;1.55;;;0.90;;
46651;SDS011;32377;52.182;5.398;2022-07-11T13:45:03;1.27;;;0.70;;
46651;SDS011;32377;52.182;5.398;2022-07-11T13:47:30;2.85;;;0.80;;
46651;SDS011;32377;52.182;5.398;2022-07-11T13:49:57;1.08;;;0.80;;
46651;SDS011;32377;52.182;5.398;2022-07-11T13:52:23;0.93;;;0.80;;
46651;SDS011;32377;52.182;5.398;2022-07-11T13:54:48;0.70;;;0.70;;
46651;SDS011;32377;52.182;5.398;2022-07-11T13:57:14;0.70;;;0.70;;
46651;SDS011;32377;52.182;5.398;2022-07-11T13:59:39;1.27;;;0.90;;
46651;SDS011;32377;52.182;5.398;2022-07-11T14:02:05;0.85;;;0.45;;
46651;SDS011;32377;52.182;5.398;2022-07-11T14:04:32;0.60;;;0.50;;
46651;SDS011;32377;52.182;5.398;2022-07-11T14:06:57;1.83;;;0.60;;
46651;SDS011;32377;52.182;5.398;2022-07-11T14:09:23;1.73;;;0.60;;
46651;SDS011;32377;52.182;5.398;2022-07-11T14:11:49;3.40;;;0.73;;
46651;SDS011;32377;52.182;5.398;2022-07-11T14:14:15;3.15;;;0.70;;
46651;SDS011;32377;52.182;5.398;2022-07-11T14:16:41;1.70;;;0.88;;
46651;SDS011;32377;52.182;5.398;2022-07-11T14:19:06;1.40;;;0.57;;
46651;SDS011;32377;52.182;5.398;2022-07-11T14:21:38;3.03;;;0.60;;
46651;SDS011;32377;52.182;5.398;2022-07-11T14:24:06;2.40;;;0.60;;
46651;SDS011;32377;52.182;5.398;2022-07-11T14:26:32;0.85;;;0.63;;
46651;SDS011;32377;52.182;5.398;2022-07-11T14:28:59;1.85;;;0.50;;
46651;SDS011;32377;52.182;5.398;2022-07-11T14:31:26;2.20;;;0.98;;
46651;SDS011;32377;52.182;5.398;2022-07-11T14:33:52;4.35;;;0.70;;
46651;SDS011;32377;52.182;5.398;2022-07-11T14:36:18;2.53;;;0.60;;
46651;SDS011;32377;52.182;5.398;2022-07-11T14:38:44;1.38;;;0.98;;
46651;SDS011;32377;52.182;5.398;2022-07-11T14:41:14;1.00;;;0.80;;
46651;SDS011;32377;52.182;5.398;2022-07-11T14:43:41;2.22;;;0.90;;
46651;SDS011;32377;52.182;5.398;2022-07-11T14:46:07;1.15;;;0.80;;
46651;SDS011;32377;52.182;5.398;2022-07-11T14:48:33;1.13;;;0.95;;
46651;SDS011;32377;52.182;5.398;2022-07-11T14:50:59;1.13;;;0.85;;
46651;SDS011;32377;52.182;5.398;2022-07-11T14:53:25;0.75;;;0.70;;
46651;SDS011;32377;52.182;5.398;2022-07-11T14:55:51;2.38;;;0.93;;
46651;SDS011;32377;52.182;5.398;2022-07-11T14:58:17;0.60;;;0.60;;
46651;SDS011;32377;52.182;5.398;2022-07-11T15:00:43;0.90;;;0.80;;
46651;SDS011;32377;52.182;5.398;2022-07-11T15:03:09;1.10;;;0.90;;
46651;SDS011;32377;52.182;5.398;2022-07-11T15:05:57;1.35;;;0.60;;
46651;SDS011;32377;52.182;5.398;2022-07-11T15:08:23;1.83;;;0.88;;
46651;SDS011;32377;52.182;5.398;2022-07-11T15:11:08;0.50;;;0.50;;
46651;SDS011;32377;52.182;5.398;2022-07-11T15:16:18;1.55;;;0.82;;
46651;SDS011;32377;52.182;5.398;2022-07-11T15:18:44;2.50;;;1.15;;
46651;SDS011;32377;52.182;5.398;2022-07-11T15:21:10;1.20;;;0.80;;
46651;SDS011;32377;52.182;5.398;2022-07-11T15:23:36;2.47;;;0.95;;
46651;SDS011;32377;52.182;5.398;2022-07-11T15:26:01;1.00;;;1.00;;
46651;SDS011;32377;52.182;5.398;2022-07-11T15:28:27;2.92;;;1.25;;
46651;SDS011;32377;52.182;5.398;2022-07-11T15:30:53;2.70;;;0.70;;
46651;SDS011;32377;52.182;5.398;2022-07-11T15:33:19;1.95;;;0.90;;